This is the latest recevied weather packets stored in our database for station/object KGRR-WX. If no packets are shown the sender has not sent any weather packets the latest 10 day(s).
| Time | Temp. | Humidity | Pressure | Rain* | Wind** | Luminosity | Snow |
|---|---|---|---|---|---|---|---|
| 1778018423 | 12.22° C | 35% | 981.6 hPa | 0 mm | - | - | - |
| 1778017505 | 12.22° C | 35% | 981.5 hPa | 0 mm | - | - | - |
| 1778016622 | 11.67° C | 34% | 981 hPa | 0 mm | - | - | - |
| 1778015705 | 12.22° C | 34% | 981 hPa | 0 mm | - | - | - |
| 1778014824 | 12.22° C | 34% | 981 hPa | 0 mm | - | - | - |
| 1778013905 | 12.22° C | 36% | 981.5 hPa | 0 mm | - | - | - |
| 1778013022 | 12.22° C | 35% | 980.7 hPa | 0 mm | - | - | - |
| 1778012105 | 12.22° C | 35% | 980.7 hPa | 0 mm | - | - | - |
| 1778011222 | 12.22° C | 35% | 980.7 hPa | 0 mm | - | - | - |
| 1778010305 | 12.22° C | 31% | 980.4 hPa | 0 mm | - | - | - |
| 1778009414 | 12.78° C | 31% | 980.4 hPa | 0 mm | - | - | - |
| 1778008507 | 12.22° C | 31% | 980.4 hPa | 0 mm | - | - | - |
| 1778007617 | 12.78° C | 31% | 980.4 hPa | 0 mm | - | - | - |
| 1778006708 | 12.22° C | 33% | 981.1 hPa | 0 mm | - | - | - |
| 1778005823 | 12.22° C | 34% | 980.4 hPa | 0 mm | - | - | - |
| 1778004908 | 12.78° C | 34% | 980.4 hPa | 0 mm | - | - | - |
| 1778004023 | 12.78° C | 34% | 980.4 hPa | 0 mm | - | - | - |
| 1778003108 | 12.78° C | 33% | 979.7 hPa | 0 mm | - | - | - |
| 1778002214 | 12.78° C | 33% | 978.9 hPa | 0 mm | - | - | - |
| 1778001308 | 12.78° C | 33% | 978.9 hPa | 0 mm | - | - | - |
| 1778000418 | 12.78° C | 33% | 978.9 hPa | 0 mm | - | - | - |
| 1777999508 | 12.78° C | 33% | 979.6 hPa | 0 mm | - | - | - |
| 1777998622 | 12.78° C | 30% | 977.8 hPa | 0 mm | - | - | - |
| 1777997708 | 12.22° C | 30% | 977.8 hPa | 0 mm | - | - | - |
| 1777996826 | 12.22° C | 30% | 977.8 hPa | 0 mm | - | - | - |
* Rain latest hour (hover to see other rain measurements)
** Current wind speed in m/s (hover to see current wind gust speed)